Time;durP1;ratioP1;P1;durP2;ratioP2;P2;SDS_P1;SDS_P2;PMS_P1;PMS_P2;Temp;Humidity;BMP_temperature;BMP_pressure;BME280_temperature;BME280_humidity;BME280_pressure;Samples;Min_cycle;Max_cycle;Signal;HPM_P1;HPM_P2
2021/12/14 00:01:21;;;;;;;9.15;5.95;;;5.80;96.90;;;;;;10111278;28;20031;-66
2021/12/14 00:06:13;;;;;;;12.18;7.15;;;5.80;97.00;;;;;;10116826;28;20031;-68
2021/12/14 00:15:56;;;;;;;11.65;6.47;;;6.00;96.90;;;;;;10124484;28;20029;-67
2021/12/14 00:20:52;;;;;;;13.40;7.05;;;6.00;96.80;;;;;;10116979;28;20040;-66
2021/12/14 00:25:53;;;;;;;15.55;7.57;;;6.10;96.70;;;;;;10111700;28;20497;-67
2021/12/14 00:30:47;;;;;;;13.20;7.35;;;6.30;96.60;;;;;;10132870;28;20123;-67
2021/12/14 00:35:39;;;;;;;16.15;7.70;;;6.20;96.60;;;;;;10129754;28;20031;-69
2021/12/14 00:40:35;;;;;;;12.10;7.22;;;6.30;96.70;;;;;;10114645;28;20083;-66
2021/12/14 00:45:29;;;;;;;16.60;8.88;;;6.40;96.60;;;;;;10126092;28;20116;-65
2021/12/14 00:50:22;;;;;;;23.00;9.48;;;6.50;96.60;;;;;;10113447;28;20051;-67
2021/12/14 00:55:18;;;;;;;19.10;8.55;;;6.50;96.50;;;;;;10107782;28;20040;-65
2021/12/14 01:00:12;;;;;;;20.77;8.35;;;6.50;96.50;;;;;;10110105;28;20028;-66
2021/12/14 01:05:12;;;;;;;17.45;9.05;;;6.50;96.50;;;;;;10121677;28;20037;-66
2021/12/14 01:10:26;;;;;;;21.17;9.35;;;6.50;96.60;;;;;;10112589;28;20063;-67
2021/12/14 01:15:51;;;;;;;23.77;9.48;;;6.50;96.60;;;;;;10116621;28;20036;-67
2021/12/14 01:20:49;;;;;;;16.88;8.63;;;6.40;96.60;;;;;;10125609;28;20064;-66
2021/12/14 01:25:42;;;;;;;16.00;7.57;;;6.40;96.80;;;;;;10122629;28;20035;-67
2021/12/14 01:30:36;;;;;;;25.40;8.77;;;6.50;96.70;;;;;;10132214;28;20510;-66
2021/12/14 01:35:32;;;;;;;19.42;7.90;;;6.40;96.80;;;;;;10128033;28;20394;-67
2021/12/14 01:40:46;;;;;;;19.25;8.70;;;6.40;96.80;;;;;;10120071;28;20032;-67
2021/12/14 01:45:34;;;;;;;17.98;7.90;;;6.30;96.80;;;;;;10113224;28;20051;-65
2021/12/14 01:50:36;;;;;;;18.92;7.75;;;6.40;96.80;;;;;;10111420;28;20045;-65
2021/12/14 01:55:33;;;;;;;20.95;8.75;;;6.40;96.80;;;;;;10124410;28;20511;-66
2021/12/14 02:00:33;;;;;;;22.05;8.75;;;6.40;96.70;;;;;;10112080;28;20025;-66
2021/12/14 02:05:29;;;;;;;16.70;7.85;;;6.50;96.70;;;;;;10115757;28;20033;-65
2021/12/14 02:10:28;;;;;;;18.67;8.82;;;6.40;96.80;;;;;;10123182;28;20536;-68
2021/12/14 02:15:41;;;;;;;20.10;9.30;;;6.40;96.80;;;;;;10116112;28;20027;-66
2021/12/14 02:20:37;;;;;;;19.35;8.45;;;6.30;96.90;;;;;;10114608;28;20052;-67
2021/12/14 02:25:28;;;;;;;18.77;6.85;;;6.40;96.90;;;;;;10110082;28;20036;-67
2021/12/14 02:30:27;;;;;;;16.67;7.18;;;6.40;96.70;;;;;;10116769;28;20045;-66
2021/12/14 02:35:22;;;;;;;16.27;8.35;;;6.40;96.80;;;;;;10123138;28;20376;-66
2021/12/14 02:40:20;;;;;;;17.23;7.60;;;6.40;96.90;;;;;;10112764;28;20101;-67
2021/12/14 02:45:11;;;;;;;19.17;9.30;;;6.50;96.90;;;;;;10109366;28;20291;-66
2021/12/14 02:50:04;;;;;;;19.05;8.45;;;6.50;96.80;;;;;;10120317;28;20541;-68
2021/12/14 02:55:02;;;;;;;20.63;8.73;;;6.60;96.80;;;;;;10108609;28;20059;-67
2021/12/14 02:59:55;;;;;;;18.42;8.50;;;6.50;96.90;;;;;;10107105;28;20025;-68
2021/12/14 03:04:54;;;;;;;14.02;6.82;;;6.50;96.90;;;;;;10131567;28;20036;-66
2021/12/14 03:09:58;;;;;;;21.15;7.95;;;6.50;96.90;;;;;;10125646;28;20259;-65
2021/12/14 03:14:54;;;;;;;18.17;9.15;;;6.50;96.90;;;;;;10113413;28;20025;-66
2021/12/14 03:20:12;;;;;;;16.88;7.63;;;6.50;97.00;;;;;;10126428;28;20499;-66
2021/12/14 03:25:05;;;;;;;21.20;9.00;;;6.40;97.00;;;;;;10108064;28;20048;-66
2021/12/14 03:29:57;;;;;;;21.70;8.60;;;6.50;96.90;;;;;;10131883;28;20051;-65
2021/12/14 03:34:48;;;;;;;16.83;7.85;;;6.40;97.00;;;;;;10114414;28;20029;-66
2021/12/14 03:39:43;;;;;;;15.95;7.10;;;6.50;96.90;;;;;;10131668;28;20435;-64
2021/12/14 03:44:41;;;;;;;14.07;6.60;;;6.50;96.80;;;;;;10110913;28;20044;-65
2021/12/14 03:49:39;;;;;;;22.15;9.55;;;6.40;97.00;;;;;;10110999;28;20136;-66
2021/12/14 03:54:30;;;;;;;14.55;6.80;;;6.40;97.00;;;;;;10121862;28;20024;-67
2021/12/14 03:59:21;;;;;;;15.82;7.07;;;6.30;97.10;;;;;;10108055;28;20135;-66
2021/12/14 04:04:29;;;;;;;12.15;6.40;;;6.40;97.00;;;;;;10124609;28;20021;-68
2021/12/14 04:09:23;;;;;;;15.32;6.57;;;6.40;96.90;;;;;;10117879;28;20029;-66
2021/12/14 04:14:14;;;;;;;16.75;7.75;;;6.40;97.10;;;;;;10123095;28;20048;-67
2021/12/14 04:19:09;;;;;;;23.23;7.88;;;6.40;97.00;;;;;;10122460;28;20036;-67
2021/12/14 04:24:00;;;;;;;13.63;6.83;;;6.30;96.80;;;;;;10124022;28;20548;-66
2021/12/14 04:28:55;;;;;;;13.40;5.72;;;6.30;97.00;;;;;;10128637;28;20093;-67
2021/12/14 04:33:48;;;;;;;20.03;8.07;;;6.20;97.00;;;;;;10114242;28;20438;-66
2021/12/14 04:38:54;;;;;;;17.30;9.30;;;6.20;97.00;;;;;;10126598;28;20020;-68
2021/12/14 04:54:14;;;;;;;16.00;7.30;;;6.20;96.90;;;;;;10106737;28;20055;-67
2021/12/14 04:59:14;;;;;;;14.10;6.85;;;6.00;97.00;;;;;;10111497;28;20367;-66
2021/12/14 05:04:09;;;;;;;18.13;6.82;;;6.00;97.10;;;;;;10119627;28;20056;-66
2021/12/14 05:09:23;;;;;;;23.08;8.00;;;6.00;97.00;;;;;;10110194;28;20457;-65
2021/12/14 05:14:14;;;;;;;13.65;6.93;;;6.10;97.00;;;;;;10107166;28;20223;-65
2021/12/14 05:19:07;;;;;;;14.65;5.78;;;6.20;96.90;;;;;;10107317;28;20164;-66
2021/12/14 05:24:00;;;;;;;16.48;6.13;;;6.00;97.00;;;;;;10119472;28;20054;-65
2021/12/14 05:28:50;;;;;;;14.77;6.35;;;5.90;97.10;;;;;;10108873;28;20033;-66
2021/12/14 05:33:43;;;;;;;15.30;5.88;;;5.80;97.20;;;;;;10111566;28;20032;-67
2021/12/14 05:38:50;;;;;;;14.18;5.93;;;5.80;97.20;;;;;;10122893;28;20036;-66
2021/12/14 05:43:42;;;;;;;13.07;4.65;;;5.80;97.20;;;;;;10109436;28;20150;-66
2021/12/14 05:48:36;;;;;;;14.70;6.20;;;5.80;97.30;;;;;;10125278;28;20025;-69
2021/12/14 05:53:31;;;;;;;15.15;5.75;;;5.80;97.20;;;;;;10113319;28;20517;-67
2021/12/14 05:58:24;;;;;;;13.13;5.20;;;5.80;97.20;;;;;;10117611;28;20021;-66
2021/12/14 06:03:18;;;;;;;20.38;5.95;;;5.80;97.20;;;;;;10137348;28;20040;-65
2021/12/14 06:08:08;;;;;;;14.88;5.20;;;5.70;97.10;;;;;;10105809;28;20031;-67
2021/12/14 06:12:59;;;;;;;12.77;5.03;;;5.60;97.20;;;;;;10114614;28;20040;-66
2021/12/14 06:17:50;;;;;;;16.88;6.93;;;5.70;97.20;;;;;;10105010;28;20025;-65
2021/12/14 06:22:42;;;;;;;14.80;6.53;;;5.50;97.10;;;;;;10136390;28;20116;-66
2021/12/14 06:27:33;;;;;;;14.27;6.28;;;5.50;97.30;;;;;;10115569;28;20039;-65
2021/12/14 06:32:30;;;;;;;13.43;4.75;;;5.50;97.20;;;;;;10122844;28;20077;-67
2021/12/14 06:42:17;;;;;;;9.38;4.30;;;5.60;97.10;;;;;;10130335;28;19912;-66
2021/12/14 06:47:08;;;;;;;13.18;5.53;;;5.60;97.00;;;;;;10132458;28;20050;-64
2021/12/14 06:51:59;;;;;;;16.30;6.22;;;5.50;97.10;;;;;;10133098;28;20052;-64
2021/12/14 06:56:52;;;;;;;10.82;5.88;;;5.50;97.10;;;;;;10122851;28;20040;-66
2021/12/14 07:01:49;;;;;;;12.98;5.68;;;5.50;97.20;;;;;;10123926;28;20095;-66
2021/12/14 07:06:39;;;;;;;;;;;5.40;97.20;;;;;;10131236;28;20025;-65
2021/12/14 07:11:30;;;;;;;10.50;5.53;;;5.40;97.20;;;;;;10137010;28;19920;-66
2021/12/14 07:16:29;;;;;;;17.00;6.45;;;5.60;97.10;;;;;;10130239;28;20033;-64
2021/12/14 07:21:36;;;;;;;13.77;7.30;;;5.40;97.00;;;;;;10136089;28;20177;-65
2021/12/14 07:26:26;;;;;;;16.00;6.50;;;5.30;97.20;;;;;;10133577;28;20472;-64
2021/12/14 07:31:20;;;;;;;13.95;6.38;;;5.30;97.00;;;;;;10139835;28;20043;-65
2021/12/14 07:36:19;;;;;;;16.50;6.35;;;5.20;97.20;;;;;;10137674;28;20029;-64
2021/12/14 07:41:35;;;;;;;17.15;7.25;;;5.10;97.20;;;;;;10129761;28;20051;-66
2021/12/14 07:46:35;;;;;;;11.55;6.40;;;5.00;97.10;;;;;;10137795;28;20544;-65
2021/12/14 07:51:32;;;;;;;14.48;5.72;;;5.00;97.20;;;;;;10130041;28;20136;-64
2021/12/14 07:56:28;;;;;;;13.20;6.45;;;5.10;97.00;;;;;;10132549;28;20024;-65
2021/12/14 08:01:19;;;;;;;13.93;6.68;;;5.10;97.00;;;;;;10133570;28;20032;-66
2021/12/14 08:06:13;;;;;;;13.68;7.65;;;5.30;97.00;;;;;;10128377;28;20032;-64
2021/12/14 08:11:27;;;;;;;12.40;5.47;;;5.30;96.90;;;;;;10127962;28;20048;-65
2021/12/14 08:16:18;;;;;;;12.85;5.53;;;5.30;96.80;;;;;;10130127;28;20028;-66
2021/12/14 08:21:19;;;;;;;13.07;6.55;;;5.20;96.90;;;;;;10130014;28;20443;-66
2021/12/14 08:26:14;;;;;;;9.15;5.00;;;5.30;96.80;;;;;;10127820;28;20104;-65
2021/12/14 08:31:08;;;;;;;14.20;6.50;;;5.20;96.70;;;;;;10130491;28;20056;-64
2021/12/14 08:36:04;;;;;;;10.02;5.57;;;5.20;96.80;;;;;;10126700;28;20021;-65
2021/12/14 08:41:00;;;;;;;17.40;7.20;;;5.50;96.80;;;;;;10127695;28;20067;-66
2021/12/14 08:45:57;;;;;;;12.50;7.50;;;5.50;96.70;;;;;;10131995;28;20029;-65
2021/12/14 08:51:14;;;;;;;12.43;5.65;;;5.50;96.80;;;;;;10128208;28;20497;-64
2021/12/14 08:56:07;;;;;;;11.88;5.90;;;5.50;96.60;;;;;;10119284;28;20025;-66
2021/12/14 09:01:09;;;;;;;13.27;6.18;;;5.50;96.70;;;;;;10127041;28;20033;-66
2021/12/14 09:06:08;;;;;;;14.40;7.45;;;5.50;96.50;;;;;;10128046;28;20036;-66
2021/12/14 09:11:00;;;;;;;14.25;6.30;;;5.50;96.50;;;;;;10126761;28;20123;-66
2021/12/14 09:15:59;;;;;;;13.82;7.85;;;5.60;96.50;;;;;;10126253;28;20039;-66
2021/12/14 09:20:54;;;;;;;14.25;8.30;;;5.70;96.30;;;;;;10126429;28;20079;-66
2021/12/14 09:25:46;;;;;;;16.95;7.32;;;5.50;96.30;;;;;;10121863;28;20028;-66
2021/12/14 09:30:44;;;;;;;11.00;7.38;;;5.40;96.40;;;;;;10132285;28;20056;-66
2021/12/14 09:35:35;;;;;;;13.02;7.50;;;5.20;96.50;;;;;;10131685;28;20036;-66
2021/12/14 09:40:35;;;;;;;13.73;7.07;;;5.10;96.30;;;;;;10126538;28;20043;-64
2021/12/14 09:45:34;;;;;;;13.02;6.78;;;5.10;96.30;;;;;;10124406;28;20518;-66
2021/12/14 09:50:32;;;;;;;11.25;5.70;;;5.10;96.20;;;;;;10128565;28;20037;-66
2021/12/14 09:55:27;;;;;;;11.48;6.22;;;5.20;96.10;;;;;;10126476;28;20036;-65
2021/12/14 10:00:23;;;;;;;11.50;5.95;;;5.20;95.90;;;;;;10123762;28;20036;-66
2021/12/14 10:05:16;;;;;;;;;;;5.20;95.90;;;;;;10126380;28;20368;-66
2021/12/14 10:10:12;;;;;;;14.20;6.93;;;5.40;95.80;;;;;;10125274;28;19917;-66
2021/12/14 10:15:22;;;;;;;10.50;6.93;;;5.20;96.10;;;;;;10126735;28;20025;-66
2021/12/14 10:20:21;;;;;;;15.68;6.72;;;5.20;95.90;;;;;;10122663;28;20029;-65
2021/12/14 10:25:16;;;;;;;13.70;6.10;;;5.30;95.80;;;;;;10127454;28;20020;-65
2021/12/14 10:30:27;;;;;;;10.43;5.70;;;5.50;95.80;;;;;;10121566;28;20042;-65
2021/12/14 10:35:23;;;;;;;13.25;6.90;;;5.70;95.60;;;;;;10128684;28;20192;-67
2021/12/14 10:45:28;;;;;;;9.20;5.93;;;5.60;95.70;;;;;;10111710;28;20051;-66
2021/12/14 10:50:24;;;;;;;13.57;7.32;;;6.00;95.50;;;;;;10127256;28;20123;-66
2021/12/14 10:55:26;;;;;;;11.23;6.45;;;6.30;95.30;;;;;;10126505;28;20359;-66
2021/12/14 11:00:19;;;;;;;15.10;7.85;;;6.30;95.20;;;;;;10125524;28;20060;-65
2021/12/14 11:05:17;;;;;;;15.68;7.00;;;6.30;95.30;;;;;;10124282;28;20543;-65
2021/12/14 11:10:17;;;;;;;15.23;8.55;;;6.40;95.20;;;;;;10122959;28;20132;-67
2021/12/14 11:15:15;;;;;;;13.02;6.80;;;6.60;95.10;;;;;;10125297;28;20024;-66
2021/12/14 11:20:10;;;;;;;15.20;8.43;;;6.80;94.70;;;;;;10129418;28;20052;-66
2021/12/14 11:25:32;;;;;;;14.32;7.07;;;6.50;95.00;;;;;;10136693;28;20029;-66
2021/12/14 11:30:30;;;;;;;14.68;8.30;;;6.60;94.90;;;;;;10134801;28;20037;-66
2021/12/14 11:35:27;;;;;;;12.98;6.38;;;6.60;94.80;;;;;;10131186;28;20567;-66
2021/12/14 11:40:21;;;;;;;11.93;6.55;;;6.60;94.60;;;;;;10133737;28;20317;-67
2021/12/14 11:45:17;;;;;;;13.25;7.05;;;6.70;94.30;;;;;;10139342;28;20029;-66
2021/12/14 11:50:52;;;;;;;14.60;8.10;;;6.60;94.60;;;;;;10145080;28;20020;-66
2021/12/14 11:55:55;;;;;;;12.98;7.70;;;6.60;94.50;;;;;;10056774;28;20400;-65
2021/12/14 12:01:01;;;;;;;12.27;6.75;;;6.80;94.40;;;;;;10108182;28;20102;-66
2021/12/14 12:06:08;;;;;;;14.70;7.68;;;7.10;94.30;;;;;;10132574;28;20473;-65
2021/12/14 12:11:05;;;;;;;14.02;8.10;;;7.30;94.30;;;;;;10135871;28;20343;-65
2021/12/14 12:16:07;;;;;;;16.75;9.52;;;7.50;93.90;;;;;;10131138;28;20032;-65
2021/12/14 12:20:58;;;;;;;15.23;7.57;;;7.30;94.10;;;;;;10130948;28;20525;-65
2021/12/14 12:25:58;;;;;;;12.90;7.32;;;7.20;94.30;;;;;;10130775;28;20021;-68
2021/12/14 12:31:23;;;;;;;13.85;8.18;;;7.50;94.00;;;;;;10128406;28;20051;-66
2021/12/14 12:36:19;;;;;;;12.35;7.75;;;7.90;93.90;;;;;;10122022;28;20094;-68
2021/12/14 12:41:26;;;;;;;11.45;6.88;;;8.20;93.50;;;;;;10128725;28;20029;-66
2021/12/14 12:46:22;;;;;;;13.10;8.27;;;8.40;93.70;;;;;;10131390;28;20655;-66
2021/12/14 12:51:48;;;;;;;14.23;7.57;;;8.30;93.70;;;;;;10127671;28;20043;-65
2021/12/14 12:56:42;;;;;;;10.82;7.03;;;8.40;93.60;;;;;;10131866;28;20020;-65
2021/12/14 13:01:33;;;;;;;13.48;7.70;;;8.40;93.50;;;;;;10125873;28;20079;-65
2021/12/14 13:06:24;;;;;;;12.35;7.45;;;8.40;93.50;;;;;;10123964;28;20024;-65
2021/12/14 13:11:24;;;;;;;11.48;7.03;;;8.40;93.30;;;;;;10123168;28;20045;-66
2021/12/14 13:16:22;;;;;;;15.90;7.65;;;8.50;93.20;;;;;;10130797;28;20493;-66
2021/12/14 13:21:13;;;;;;;15.52;7.97;;;8.50;93.10;;;;;;10128210;28;20484;-66
2021/12/14 13:26:29;;;;;;;11.25;8.23;;;8.40;93.00;;;;;;10128127;28;20067;-65
2021/12/14 13:31:35;;;;;;;15.82;8.40;;;8.40;93.00;;;;;;10127519;28;20036;-67
2021/12/14 13:36:26;;;;;;;;;;;8.40;92.90;;;;;;10127677;28;20095;-66
2021/12/14 13:41:34;;;;;;;15.55;8.50;;;8.30;93.00;;;;;;10127228;28;19961;-66
2021/12/14 13:46:25;;;;;;;17.75;9.38;;;8.30;93.10;;;;;;10128196;28;20476;-65
2021/12/14 13:51:20;;;;;;;13.70;8.07;;;8.30;93.10;;;;;;10125963;28;20295;-65
2021/12/14 13:56:32;;;;;;;15.95;8.82;;;8.20;93.10;;;;;;10123823;28;20036;-67
2021/12/14 14:01:27;;;;;;;13.77;6.88;;;8.30;93.00;;;;;;10122725;28;20028;-67
2021/12/14 14:06:20;;;;;;;6.37;4.20;;;8.00;93.10;;;;;;10126995;28;20368;-66
2021/12/14 14:11:24;;;;;;;4.32;3.33;;;7.90;93.30;;;;;;10125799;28;20036;-66
2021/12/14 14:16:15;;;;;;;5.10;3.03;;;7.70;93.40;;;;;;10126435;28;20415;-65
2021/12/14 14:21:09;;;;;;;6.28;3.45;;;7.60;93.60;;;;;;10125880;28;20048;-66
2021/12/14 14:26:03;;;;;;;7.35;3.60;;;7.50;93.60;;;;;;10127335;28;20035;-67
2021/12/14 14:30:57;;;;;;;5.50;2.90;;;7.40;93.60;;;;;;10126963;28;20040;-67
2021/12/14 14:35:50;;;;;;;5.78;3.47;;;7.30;93.70;;;;;;10127422;28;20487;-66
2021/12/14 14:40:41;;;;;;;4.38;2.97;;;7.30;93.60;;;;;;10122329;28;20060;-65
2021/12/14 14:45:32;;;;;;;7.68;4.00;;;7.30;93.70;;;;;;10125160;28;20390;-66
2021/12/14 14:50:23;;;;;;;4.90;2.90;;;7.30;93.70;;;;;;10122272;28;20149;-65
2021/12/14 14:55:18;;;;;;;5.00;3.10;;;7.30;93.80;;;;;;10125044;28;20132;-68
2021/12/14 15:00:19;;;;;;;6.93;3.77;;;7.20;94.10;;;;;;10133157;28;20078;-65
2021/12/14 15:05:12;;;;;;;5.57;3.25;;;7.10;94.20;;;;;;10133183;28;20290;-67
2021/12/14 15:10:11;;;;;;;10.13;4.22;;;7.10;94.20;;;;;;10133765;28;20036;-67
2021/12/14 15:15:13;;;;;;;9.00;3.78;;;7.00;94.10;;;;;;10133131;28;20038;-68
2021/12/14 15:20:05;;;;;;;9.70;4.35;;;6.90;94.10;;;;;;10130077;28;20066;-67
2021/12/14 15:24:59;;;;;;;8.32;5.10;;;6.80;94.20;;;;;;10090813;28;20058;-67
2021/12/14 15:30:02;;;;;;;9.88;5.13;;;6.60;94.40;;;;;;10094671;28;20040;-65
2021/12/14 15:35:08;;;;;;;6.90;3.80;;;6.60;94.30;;;;;;10091807;28;20029;-65
2021/12/14 15:39:59;;;;;;;9.30;5.00;;;6.60;94.40;;;;;;10084024;28;20116;-66
2021/12/14 15:44:51;;;;;;;8.80;4.55;;;6.60;94.50;;;;;;10090753;28;20120;-66
2021/12/14 15:49:41;;;;;;;5.75;4.13;;;6.50;94.50;;;;;;10092594;28;20126;-66
2021/12/14 15:54:37;;;;;;;7.95;4.50;;;6.70;94.60;;;;;;10093878;28;20037;-66
2021/12/14 15:59:31;;;;;;;5.88;4.05;;;6.70;94.60;;;;;;10090998;28;20436;-66
2021/12/14 16:04:33;;;;;;;5.88;5.07;;;6.70;94.60;;;;;;10091131;28;20407;-65
2021/12/14 16:09:27;;;;;;;7.32;4.53;;;6.80;94.50;;;;;;10087021;28;20032;-66
2021/12/14 16:19:31;;;;;;;6.60;4.43;;;6.70;94.90;;;;;;10089679;28;20075;-65
2021/12/14 16:24:23;;;;;;;10.48;4.88;;;6.60;94.80;;;;;;10127598;28;20083;-65
2021/12/14 16:29:14;;;;;;;7.90;4.03;;;6.70;94.80;;;;;;10130902;28;20039;-65
2021/12/14 16:34:08;;;;;;;9.80;5.03;;;6.60;95.10;;;;;;10127195;28;20131;-64
2021/12/14 16:39:09;;;;;;;11.25;5.32;;;6.50;95.00;;;;;;10131398;28;20048;-65
2021/12/14 16:44:25;;;;;;;8.57;4.70;;;6.60;95.00;;;;;;10127454;28;20482;-65
2021/12/14 16:49:21;;;;;;;10.88;5.53;;;6.60;95.00;;;;;;10128674;28;20044;-64
2021/12/14 16:54:16;;;;;;;10.45;4.45;;;6.50;95.20;;;;;;10130217;28;20102;-66
2021/12/14 16:59:12;;;;;;;12.00;5.47;;;6.40;95.30;;;;;;10128708;28;20499;-65
2021/12/14 17:04:04;;;;;;;11.45;4.95;;;6.30;95.30;;;;;;10130776;28;20400;-65
2021/12/14 17:08:58;;;;;;;8.90;5.35;;;6.20;95.40;;;;;;10130546;28;20681;-65
2021/12/14 17:13:54;;;;;;;10.50;4.93;;;6.10;95.40;;;;;;10130892;28;20610;-67
2021/12/14 17:18:48;;;;;;;10.68;5.13;;;6.20;95.50;;;;;;10128346;28;20584;-66
2021/12/14 17:23:40;;;;;;;16.08;6.65;;;6.10;95.50;;;;;;10125371;28;20467;-65
2021/12/14 17:28:36;;;;;;;11.30;5.75;;;6.10;95.30;;;;;;10127186;28;20028;-65
2021/12/14 17:33:31;;;;;;;11.27;4.53;;;6.10;95.30;;;;;;10132316;28;20128;-65
2021/12/14 17:38:25;;;;;;;10.25;4.70;;;6.00;95.60;;;;;;10130189;28;20063;-66
2021/12/14 17:43:18;;;;;;;12.55;6.18;;;6.00;96.00;;;;;;10132753;28;20032;-65
2021/12/14 17:48:09;;;;;;;15.40;7.00;;;6.00;95.60;;;;;;10132961;28;20047;-66
2021/12/14 17:53:06;;;;;;;17.67;7.75;;;6.00;95.90;;;;;;10129680;28;20174;-65
2021/12/14 17:58:00;;;;;;;17.38;7.20;;;5.90;95.60;;;;;;10128464;28;20091;-67
2021/12/14 18:02:57;;;;;;;17.33;6.60;;;5.90;95.80;;;;;;10128244;28;20419;-66
2021/12/14 18:07:58;;;;;;;18.50;8.45;;;6.00;95.90;;;;;;10122479;28;20028;-68
2021/12/14 18:12:53;;;;;;;12.85;5.10;;;6.00;95.70;;;;;;10117130;28;20033;-66
2021/12/14 18:17:52;;;;;;;11.32;5.43;;;6.00;95.90;;;;;;10116677;28;20040;-65
2021/12/14 18:22:43;;;;;;;15.73;7.53;;;6.10;96.10;;;;;;10109203;28;20183;-67
2021/12/14 18:27:41;;;;;;;17.50;6.57;;;6.00;95.80;;;;;;10112676;28;20161;-64
2021/12/14 18:32:32;;;;;;;11.23;6.28;;;6.10;95.90;;;;;;10119340;28;20051;-67
2021/12/14 18:37:30;;;;;;;13.10;5.30;;;6.20;95.90;;;;;;10125861;28;20020;-71
2021/12/14 18:42:30;;;;;;;16.13;6.65;;;6.20;95.90;;;;;;10127904;28;20015;-71
2021/12/14 18:52:34;;;;;;;9.90;4.65;;;6.10;95.70;;;;;;10124675;28;20036;-70
2021/12/14 18:57:27;;;;;;;13.02;6.68;;;6.10;95.90;;;;;;10126127;28;20021;-70
2021/12/14 19:02:23;;;;;;;12.20;6.57;;;6.10;95.80;;;;;;10116036;28;20033;-70
2021/12/14 19:07:15;;;;;;;14.40;6.68;;;6.10;95.80;;;;;;10122372;28;20129;-68
2021/12/14 19:12:13;;;;;;;12.77;6.07;;;6.10;95.80;;;;;;10120874;28;20051;-70
2021/12/14 19:17:08;;;;;;;10.13;5.43;;;6.00;95.90;;;;;;10128284;28;20439;-70
2021/12/14 19:22:16;;;;;;;11.18;5.72;;;6.00;96.00;;;;;;10127103;28;20036;-71
2021/12/14 19:27:13;;;;;;;13.68;6.43;;;6.00;95.80;;;;;;10122384;28;20526;-69
2021/12/14 19:32:17;;;;;;;11.73;5.15;;;6.00;96.00;;;;;;10125633;28;20549;-70
2021/12/14 19:37:18;;;;;;;13.15;5.70;;;6.10;96.00;;;;;;10132387;28;20028;-69
2021/12/14 19:42:24;;;;;;;17.05;7.00;;;6.10;95.90;;;;;;10111963;28;20262;-67
2021/12/14 19:47:20;;;;;;;15.85;6.63;;;6.10;95.80;;;;;;10129745;28;20078;-68
2021/12/14 19:52:14;;;;;;;12.63;7.22;;;6.10;96.00;;;;;;10123714;28;20064;-70
2021/12/14 19:57:07;;;;;;;12.90;5.88;;;6.10;95.90;;;;;;10138230;28;20064;-70
2021/12/14 20:02:00;;;;;;;13.40;5.72;;;6.00;95.90;;;;;;10118786;28;20031;-69
2021/12/14 20:06:57;;;;;;;10.82;5.45;;;6.00;95.90;;;;;;10132137;28;20335;-73
2021/12/14 20:11:53;;;;;;;13.40;7.05;;;6.00;96.00;;;;;;10136430;28;20032;-72
2021/12/14 20:16:49;;;;;;;17.48;6.68;;;6.00;96.00;;;;;;10126044;28;20057;-71
2021/12/14 20:21:44;;;;;;;7.53;4.80;;;6.00;95.80;;;;;;10140160;28;20178;-71
2021/12/14 20:27:01;;;;;;;12.80;5.65;;;6.10;96.00;;;;;;10138882;28;20047;-71
2021/12/14 20:31:58;;;;;;;16.13;6.63;;;6.10;95.80;;;;;;10140313;28;20082;-70
2021/12/14 20:36:49;;;;;;;12.80;4.78;;;6.20;96.00;;;;;;10139912;28;20032;-71
2021/12/14 20:42:03;;;;;;;13.93;6.18;;;6.20;96.00;;;;;;10122992;28;20035;-69
2021/12/14 20:47:01;;;;;;;16.00;5.63;;;6.20;96.00;;;;;;10129598;28;20518;-70
2021/12/14 20:51:59;;;;;;;14.18;6.00;;;6.20;96.10;;;;;;10134206;28;20025;-71
2021/12/14 20:56:56;;;;;;;13.00;7.70;;;6.20;96.10;;;;;;10133991;28;20016;-74
2021/12/14 21:01:51;;;;;;;18.02;5.82;;;6.30;96.00;;;;;;10131926;28;20101;-73
2021/12/14 21:06:48;;;;;;;15.60;7.53;;;6.30;96.00;;;;;;10133579;28;20028;-72
2021/12/14 21:11:48;;;;;;;10.82;4.40;;;6.30;96.10;;;;;;10145993;28;20255;-73
2021/12/14 21:16:54;;;;;;;14.05;5.63;;;6.20;96.30;;;;;;10130491;28;20120;-74
2021/12/14 21:21:45;;;;;;;14.90;6.10;;;6.20;96.20;;;;;;10159526;28;20091;-74
2021/12/14 21:26:40;;;;;;;13.80;5.30;;;6.20;96.30;;;;;;10135881;28;20235;-74
2021/12/14 21:31:36;;;;;;;14.20;5.55;;;6.30;96.30;;;;;;10141067;28;20077;-74
2021/12/14 21:36:29;;;;;;;13.15;5.97;;;6.40;96.10;;;;;;10143209;28;20024;-73
2021/12/14 21:41:42;;;;;;;16.67;6.05;;;6.30;96.20;;;;;;10139122;28;20031;-74
2021/12/14 21:46:46;;;;;;;15.50;6.50;;;6.40;96.30;;;;;;10107290;28;20032;-67
2021/12/14 21:51:36;;;;;;;14.80;6.22;;;6.40;96.20;;;;;;10085843;28;20561;-65
2021/12/14 21:56:27;;;;;;;16.98;6.45;;;6.40;96.40;;;;;;10106807;28;20024;-66
2021/12/14 22:01:18;;;;;;;17.30;5.55;;;6.40;96.30;;;;;;10124423;28;20145;-64
2021/12/14 22:06:09;;;;;;;16.35;7.20;;;6.50;96.30;;;;;;10130731;28;20020;-65
2021/12/14 22:11:01;;;;;;;18.63;7.00;;;6.40;96.40;;;;;;10122565;28;20047;-63
2021/12/14 22:15:55;;;;;;;18.75;6.25;;;6.40;96.40;;;;;;10120778;28;20517;-66
2021/12/14 22:20:48;;;;;;;17.73;6.63;;;6.50;96.40;;;;;;10133916;28;20048;-64
2021/12/14 22:25:39;;;;;;;13.63;6.28;;;6.60;96.40;;;;;;10135986;28;20411;-66
2021/12/14 22:30:30;;;;;;;15.43;5.63;;;6.50;96.50;;;;;;10135204;28;20029;-65
2021/12/14 22:35:21;;;;;;;21.52;7.90;;;6.40;96.60;;;;;;10125760;28;20021;-64
2021/12/14 22:40:32;;;;;;;19.08;8.63;;;6.50;96.40;;;;;;10124680;28;20237;-65
2021/12/14 22:45:24;;;;;;;18.15;7.15;;;6.60;96.50;;;;;;10136647;28;20028;-65
2021/12/14 22:50:15;;;;;;;26.25;8.75;;;6.60;96.40;;;;;;10131569;28;20506;-65
2021/12/14 22:55:14;;;;;;;19.98;7.40;;;6.70;96.40;;;;;;10129517;28;20028;-65
2021/12/14 23:00:16;;;;;;;15.52;8.15;;;6.70;96.40;;;;;;10133640;28;20391;-65
2021/12/14 23:05:08;;;;;;;17.83;7.75;;;6.60;96.40;;;;;;10134431;28;20059;-64
2021/12/14 23:10:03;;;;;;;28.55;7.63;;;6.70;96.50;;;;;;10138441;28;20066;-66
2021/12/14 23:14:59;;;;;;;19.85;9.00;;;6.50;96.60;;;;;;10130243;28;20104;-63
2021/12/14 23:19:58;;;;;;;22.58;8.73;;;6.50;96.70;;;;;;10136436;28;20036;-67
2021/12/14 23:24:53;;;;;;;24.33;8.88;;;6.50;96.70;;;;;;10141092;28;20040;-66
2021/12/14 23:29:45;;;;;;;23.97;9.10;;;6.50;96.40;;;;;;10142953;28;20021;-66
2021/12/14 23:34:35;;;;;;;18.40;7.80;;;6.50;96.60;;;;;;10143487;28;20748;-65
2021/12/14 23:39:27;;;;;;;22.52;9.82;;;6.50;96.50;;;;;;10133110;28;20039;-66
2021/12/14 23:44:27;;;;;;;22.58;8.32;;;6.60;96.60;;;;;;10132057;28;20120;-65
2021/12/14 23:49:18;;;;;;;24.48;8.10;;;6.70;96.60;;;;;;10129491;28;20028;-67
2021/12/14 23:54:12;;;;;;;22.27;9.38;;;6.60;96.50;;;;;;10135437;28;20036;-65
2021/12/14 23:59:04;;;;;;;28.10;9.85;;;6.70;96.50;;;;;;10134211;28;20055;-63
